sensor_id;sensor_type;location;lat;lon;timestamp;P1;durP1;ratioP1;P2;durP2;ratioP2
3924;SDS011;1977;52.274;10.518;2023-12-22T00:01:44;13.10;;;4.40;;
3924;SDS011;1977;52.274;10.518;2023-12-22T00:04:10;7.47;;;3.30;;
3924;SDS011;1977;52.274;10.518;2023-12-22T00:06:38;6.00;;;3.20;;
3924;SDS011;1977;52.274;10.518;2023-12-22T00:09:07;9.00;;;4.00;;
3924;SDS011;1977;52.274;10.518;2023-12-22T00:11:34;12.03;;;4.00;;
3924;SDS011;1977;52.274;10.518;2023-12-22T00:14:01;11.00;;;3.50;;
3924;SDS011;1977;52.274;10.518;2023-12-22T00:16:28;11.70;;;3.10;;
3924;SDS011;1977;52.274;10.518;2023-12-22T00:18:55;11.13;;;3.77;;
3924;SDS011;1977;52.274;10.518;2023-12-22T00:21:22;10.93;;;4.60;;
3924;SDS011;1977;52.274;10.518;2023-12-22T00:23:49;8.60;;;4.33;;
3924;SDS011;1977;52.274;10.518;2023-12-22T00:26:17;12.50;;;4.27;;
3924;SDS011;1977;52.274;10.518;2023-12-22T00:28:44;11.33;;;3.73;;
3924;SDS011;1977;52.274;10.518;2023-12-22T00:31:10;4.33;;;3.30;;
3924;SDS011;1977;52.274;10.518;2023-12-22T00:33:38;8.70;;;4.00;;
3924;SDS011;1977;52.274;10.518;2023-12-22T00:36:05;8.43;;;4.03;;
3924;SDS011;1977;52.274;10.518;2023-12-22T00:38:32;8.77;;;4.03;;
3924;SDS011;1977;52.274;10.518;2023-12-22T00:40:59;14.70;;;4.40;;
3924;SDS011;1977;52.274;10.518;2023-12-22T00:43:27;8.90;;;3.90;;
3924;SDS011;1977;52.274;10.518;2023-12-22T00:45:54;11.13;;;3.67;;
3924;SDS011;1977;52.274;10.518;2023-12-22T00:48:21;6.60;;;3.40;;
3924;SDS011;1977;52.274;10.518;2023-12-22T00:50:47;11.80;;;3.80;;
3924;SDS011;1977;52.274;10.518;2023-12-22T00:53:14;9.93;;;4.60;;
3924;SDS011;1977;52.274;10.518;2023-12-22T00:55:41;9.20;;;3.47;;
3924;SDS011;1977;52.274;10.518;2023-12-22T00:58:08;8.17;;;4.60;;
3924;SDS011;1977;52.274;10.518;2023-12-22T01:00:36;14.00;;;3.67;;
3924;SDS011;1977;52.274;10.518;2023-12-22T01:03:02;9.10;;;3.30;;
3924;SDS011;1977;52.274;10.518;2023-12-22T01:05:29;13.60;;;4.03;;
3924;SDS011;1977;52.274;10.518;2023-12-22T01:07:56;19.40;;;5.00;;
3924;SDS011;1977;52.274;10.518;2023-12-22T01:10:23;7.67;;;3.90;;
3924;SDS011;1977;52.274;10.518;2023-12-22T01:12:50;11.53;;;3.20;;
3924;SDS011;1977;52.274;10.518;2023-12-22T01:15:16;10.67;;;4.20;;
3924;SDS011;1977;52.274;10.518;2023-12-22T01:17:45;6.00;;;3.40;;
3924;SDS011;1977;52.274;10.518;2023-12-22T01:20:12;13.80;;;4.40;;
3924;SDS011;1977;52.274;10.518;2023-12-22T01:22:39;10.60;;;3.60;;
3924;SDS011;1977;52.274;10.518;2023-12-22T01:25:06;10.23;;;3.30;;
3924;SDS011;1977;52.274;10.518;2023-12-22T01:27:32;9.67;;;2.90;;
3924;SDS011;1977;52.274;10.518;2023-12-22T01:29:59;4.40;;;3.07;;
3924;SDS011;1977;52.274;10.518;2023-12-22T01:32:26;10.73;;;3.00;;
3924;SDS011;1977;52.274;10.518;2023-12-22T01:34:59;8.33;;;2.93;;
3924;SDS011;1977;52.274;10.518;2023-12-22T01:37:34;16.07;;;4.13;;
3924;SDS011;1977;52.274;10.518;2023-12-22T01:40:01;7.03;;;2.67;;
3924;SDS011;1977;52.274;10.518;2023-12-22T01:42:28;12.00;;;3.60;;
3924;SDS011;1977;52.274;10.518;2023-12-22T01:44:55;12.40;;;4.27;;
3924;SDS011;1977;52.274;10.518;2023-12-22T01:47:21;14.13;;;5.00;;
3924;SDS011;1977;52.274;10.518;2023-12-22T01:49:49;7.33;;;3.67;;
3924;SDS011;1977;52.274;10.518;2023-12-22T01:52:18;6.23;;;3.67;;
3924;SDS011;1977;52.274;10.518;2023-12-22T01:54:45;7.60;;;4.00;;
3924;SDS011;1977;52.274;10.518;2023-12-22T01:57:12;4.63;;;2.73;;
3924;SDS011;1977;52.274;10.518;2023-12-22T01:59:42;9.83;;;5.53;;
3924;SDS011;1977;52.274;10.518;2023-12-22T02:02:09;8.57;;;3.50;;
3924;SDS011;1977;52.274;10.518;2023-12-22T02:04:36;7.33;;;3.50;;
3924;SDS011;1977;52.274;10.518;2023-12-22T02:07:03;7.73;;;2.50;;
3924;SDS011;1977;52.274;10.518;2023-12-22T02:09:34;5.50;;;2.43;;
3924;SDS011;1977;52.274;10.518;2023-12-22T02:12:02;8.03;;;2.80;;
3924;SDS011;1977;52.274;10.518;2023-12-22T02:14:29;7.30;;;3.27;;
3924;SDS011;1977;52.274;10.518;2023-12-22T02:16:59;9.43;;;3.23;;
3924;SDS011;1977;52.274;10.518;2023-12-22T02:19:36;6.57;;;2.60;;
3924;SDS011;1977;52.274;10.518;2023-12-22T02:22:08;6.93;;;2.83;;
3924;SDS011;1977;52.274;10.518;2023-12-22T02:24:38;5.63;;;2.83;;
3924;SDS011;1977;52.274;10.518;2023-12-22T02:27:05;6.47;;;3.00;;
3924;SDS011;1977;52.274;10.518;2023-12-22T02:29:40;9.03;;;2.90;;
3924;SDS011;1977;52.274;10.518;2023-12-22T02:32:14;9.10;;;2.77;;
3924;SDS011;1977;52.274;10.518;2023-12-22T02:34:47;9.77;;;3.40;;
3924;SDS011;1977;52.274;10.518;2023-12-22T02:37:18;5.73;;;2.60;;
3924;SDS011;1977;52.274;10.518;2023-12-22T02:39:49;7.50;;;3.30;;
3924;SDS011;1977;52.274;10.518;2023-12-22T02:42:16;3.37;;;2.30;;
3924;SDS011;1977;52.274;10.518;2023-12-22T02:44:44;8.67;;;2.97;;
3924;SDS011;1977;52.274;10.518;2023-12-22T02:47:10;3.93;;;2.63;;
3924;SDS011;1977;52.274;10.518;2023-12-22T02:49:37;7.50;;;4.27;;
3924;SDS011;1977;52.274;10.518;2023-12-22T02:52:04;6.83;;;3.03;;
3924;SDS011;1977;52.274;10.518;2023-12-22T02:54:31;10.93;;;3.43;;
3924;SDS011;1977;52.274;10.518;2023-12-22T02:56:59;9.10;;;3.77;;
3924;SDS011;1977;52.274;10.518;2023-12-22T02:59:26;7.60;;;3.10;;
3924;SDS011;1977;52.274;10.518;2023-12-22T03:01:53;6.67;;;3.83;;
3924;SDS011;1977;52.274;10.518;2023-12-22T03:04:20;8.33;;;4.33;;
3924;SDS011;1977;52.274;10.518;2023-12-22T03:06:47;10.27;;;2.90;;
3924;SDS011;1977;52.274;10.518;2023-12-22T03:09:14;5.23;;;3.00;;
3924;SDS011;1977;52.274;10.518;2023-12-22T03:11:40;8.90;;;3.17;;
3924;SDS011;1977;52.274;10.518;2023-12-22T03:14:08;7.40;;;2.90;;
3924;SDS011;1977;52.274;10.518;2023-12-22T03:16:36;6.93;;;2.90;;
3924;SDS011;1977;52.274;10.518;2023-12-22T03:19:02;9.23;;;2.93;;
3924;SDS011;1977;52.274;10.518;2023-12-22T03:21:29;3.83;;;2.37;;
3924;SDS011;1977;52.274;10.518;2023-12-22T03:23:56;2.63;;;1.70;;
3924;SDS011;1977;52.274;10.518;2023-12-22T03:26:23;1.77;;;1.67;;
3924;SDS011;1977;52.274;10.518;2023-12-22T03:28:52;2.70;;;2.20;;
3924;SDS011;1977;52.274;10.518;2023-12-22T03:31:20;4.67;;;1.70;;
3924;SDS011;1977;52.274;10.518;2023-12-22T03:33:47;2.33;;;1.80;;
3924;SDS011;1977;52.274;10.518;2023-12-22T03:36:13;3.23;;;2.10;;
3924;SDS011;1977;52.274;10.518;2023-12-22T03:38:40;2.40;;;1.87;;
3924;SDS011;1977;52.274;10.518;2023-12-22T03:41:07;5.70;;;2.67;;
3924;SDS011;1977;52.274;10.518;2023-12-22T03:43:33;4.30;;;2.03;;
3924;SDS011;1977;52.274;10.518;2023-12-22T03:46:00;4.03;;;2.07;;
3924;SDS011;1977;52.274;10.518;2023-12-22T03:48:29;6.63;;;2.50;;
3924;SDS011;1977;52.274;10.518;2023-12-22T03:50:56;8.47;;;2.57;;
3924;SDS011;1977;52.274;10.518;2023-12-22T03:53:22;3.10;;;1.93;;
3924;SDS011;1977;52.274;10.518;2023-12-22T03:55:49;3.93;;;2.27;;
3924;SDS011;1977;52.274;10.518;2023-12-22T03:58:16;2.03;;;1.93;;
3924;SDS011;1977;52.274;10.518;2023-12-22T04:00:43;6.30;;;2.20;;
3924;SDS011;1977;52.274;10.518;2023-12-22T04:03:09;5.77;;;2.40;;
3924;SDS011;1977;52.274;10.518;2023-12-22T04:05:38;2.37;;;1.90;;
3924;SDS011;1977;52.274;10.518;2023-12-22T04:08:05;8.60;;;2.67;;
3924;SDS011;1977;52.274;10.518;2023-12-22T04:10:32;7.60;;;2.87;;
3924;SDS011;1977;52.274;10.518;2023-12-22T04:12:58;6.83;;;2.70;;
3924;SDS011;1977;52.274;10.518;2023-12-22T04:15:25;3.80;;;2.40;;
3924;SDS011;1977;52.274;10.518;2023-12-22T04:17:52;6.23;;;2.60;;
3924;SDS011;1977;52.274;10.518;2023-12-22T04:20:19;6.43;;;3.23;;
3924;SDS011;1977;52.274;10.518;2023-12-22T04:22:47;8.83;;;2.63;;
3924;SDS011;1977;52.274;10.518;2023-12-22T04:25:14;5.10;;;2.90;;
3924;SDS011;1977;52.274;10.518;2023-12-22T04:27:41;6.20;;;3.70;;
3924;SDS011;1977;52.274;10.518;2023-12-22T04:30:08;7.20;;;3.13;;
3924;SDS011;1977;52.274;10.518;2023-12-22T04:32:35;5.60;;;3.47;;
3924;SDS011;1977;52.274;10.518;2023-12-22T04:35:02;8.27;;;3.47;;
3924;SDS011;1977;52.274;10.518;2023-12-22T04:37:30;7.63;;;5.70;;
3924;SDS011;1977;52.274;10.518;2023-12-22T04:39:58;5.57;;;3.70;;
3924;SDS011;1977;52.274;10.518;2023-12-22T04:42:25;9.00;;;3.20;;
3924;SDS011;1977;52.274;10.518;2023-12-22T04:44:52;7.60;;;3.23;;
3924;SDS011;1977;52.274;10.518;2023-12-22T04:47:19;6.43;;;4.40;;
3924;SDS011;1977;52.274;10.518;2023-12-22T04:49:46;8.57;;;3.10;;
3924;SDS011;1977;52.274;10.518;2023-12-22T04:52:12;10.60;;;3.30;;
3924;SDS011;1977;52.274;10.518;2023-12-22T04:54:39;6.10;;;3.20;;
3924;SDS011;1977;52.274;10.518;2023-12-22T04:57:07;8.50;;;3.57;;
3924;SDS011;1977;52.274;10.518;2023-12-22T04:59:34;7.63;;;3.23;;
3924;SDS011;1977;52.274;10.518;2023-12-22T05:02:01;8.57;;;2.80;;
3924;SDS011;1977;52.274;10.518;2023-12-22T05:04:28;8.27;;;3.07;;
3924;SDS011;1977;52.274;10.518;2023-12-22T05:06:54;8.30;;;2.40;;
3924;SDS011;1977;52.274;10.518;2023-12-22T05:09:22;6.40;;;2.80;;
3924;SDS011;1977;52.274;10.518;2023-12-22T05:11:50;8.50;;;2.63;;
3924;SDS011;1977;52.274;10.518;2023-12-22T05:14:18;5.53;;;2.33;;
3924;SDS011;1977;52.274;10.518;2023-12-22T05:16:45;5.40;;;3.10;;
3924;SDS011;1977;52.274;10.518;2023-12-22T05:19:11;5.17;;;3.13;;
3924;SDS011;1977;52.274;10.518;2023-12-22T05:21:38;7.83;;;4.57;;
3924;SDS011;1977;52.274;10.518;2023-12-22T05:24:05;4.57;;;3.00;;
3924;SDS011;1977;52.274;10.518;2023-12-22T05:26:32;7.37;;;2.77;;
3924;SDS011;1977;52.274;10.518;2023-12-22T05:29:00;4.33;;;3.20;;
3924;SDS011;1977;52.274;10.518;2023-12-22T05:31:28;5.33;;;3.00;;
3924;SDS011;1977;52.274;10.518;2023-12-22T05:33:56;3.70;;;2.87;;
3924;SDS011;1977;52.274;10.518;2023-12-22T05:36:23;7.30;;;2.33;;
3924;SDS011;1977;52.274;10.518;2023-12-22T05:38:51;10.37;;;3.03;;
3924;SDS011;1977;52.274;10.518;2023-12-22T05:41:17;7.60;;;2.97;;
3924;SDS011;1977;52.274;10.518;2023-12-22T05:43:44;6.10;;;3.00;;
3924;SDS011;1977;52.274;10.518;2023-12-22T05:46:11;9.13;;;2.90;;
3924;SDS011;1977;52.274;10.518;2023-12-22T05:48:39;7.30;;;2.73;;
3924;SDS011;1977;52.274;10.518;2023-12-22T05:51:06;5.87;;;2.97;;
3924;SDS011;1977;52.274;10.518;2023-12-22T05:53:38;5.13;;;2.60;;
3924;SDS011;1977;52.274;10.518;2023-12-22T05:56:05;5.70;;;3.23;;
3924;SDS011;1977;52.274;10.518;2023-12-22T05:58:42;5.27;;;2.50;;
3924;SDS011;1977;52.274;10.518;2023-12-22T06:01:13;3.97;;;2.53;;
3924;SDS011;1977;52.274;10.518;2023-12-22T06:03:42;10.30;;;3.33;;
3924;SDS011;1977;52.274;10.518;2023-12-22T06:06:08;3.43;;;2.73;;
3924;SDS011;1977;52.274;10.518;2023-12-22T06:08:36;5.07;;;2.47;;
3924;SDS011;1977;52.274;10.518;2023-12-22T06:11:03;9.33;;;4.23;;
3924;SDS011;1977;52.274;10.518;2023-12-22T06:13:31;10.57;;;3.60;;
3924;SDS011;1977;52.274;10.518;2023-12-22T06:15:57;9.33;;;4.33;;
3924;SDS011;1977;52.274;10.518;2023-12-22T06:18:24;8.10;;;3.37;;
3924;SDS011;1977;52.274;10.518;2023-12-22T06:20:52;4.23;;;3.00;;
3924;SDS011;1977;52.274;10.518;2023-12-22T06:23:19;11.03;;;3.20;;
3924;SDS011;1977;52.274;10.518;2023-12-22T06:25:46;6.87;;;3.03;;
3924;SDS011;1977;52.274;10.518;2023-12-22T06:28:13;11.20;;;3.50;;
3924;SDS011;1977;52.274;10.518;2023-12-22T06:30:41;6.17;;;2.77;;
3924;SDS011;1977;52.274;10.518;2023-12-22T06:33:09;9.97;;;3.67;;
3924;SDS011;1977;52.274;10.518;2023-12-22T06:35:36;10.20;;;4.00;;
3924;SDS011;1977;52.274;10.518;2023-12-22T06:38:07;5.93;;;2.97;;
3924;SDS011;1977;52.274;10.518;2023-12-22T06:40:35;5.60;;;2.90;;
3924;SDS011;1977;52.274;10.518;2023-12-22T06:43:02;7.97;;;2.70;;
3924;SDS011;1977;52.274;10.518;2023-12-22T06:45:29;4.47;;;2.83;;
3924;SDS011;1977;52.274;10.518;2023-12-22T06:47:56;8.73;;;2.80;;
3924;SDS011;1977;52.274;10.518;2023-12-22T06:50:23;4.50;;;2.60;;
3924;SDS011;1977;52.274;10.518;2023-12-22T06:52:49;5.70;;;2.90;;
3924;SDS011;1977;52.274;10.518;2023-12-22T06:55:19;2.57;;;2.37;;
3924;SDS011;1977;52.274;10.518;2023-12-22T06:57:46;5.17;;;2.30;;
3924;SDS011;1977;52.274;10.518;2023-12-22T07:00:13;2.50;;;2.27;;
3924;SDS011;1977;52.274;10.518;2023-12-22T07:02:40;4.80;;;2.63;;
3924;SDS011;1977;52.274;10.518;2023-12-22T07:08:01;4.33;;;1.97;;
3924;SDS011;1977;52.274;10.518;2023-12-22T07:10:33;5.03;;;2.00;;
3924;SDS011;1977;52.274;10.518;2023-12-22T07:13:00;3.27;;;1.87;;
3924;SDS011;1977;52.274;10.518;2023-12-22T07:15:26;3.47;;;2.00;;
3924;SDS011;1977;52.274;10.518;2023-12-22T07:17:53;3.00;;;2.23;;
3924;SDS011;1977;52.274;10.518;2023-12-22T07:20:20;2.33;;;1.90;;
3924;SDS011;1977;52.274;10.518;2023-12-22T07:22:47;2.60;;;1.83;;
3924;SDS011;1977;52.274;10.518;2023-12-22T07:25:15;5.23;;;2.17;;
3924;SDS011;1977;52.274;10.518;2023-12-22T07:27:45;5.63;;;1.80;;
3924;SDS011;1977;52.274;10.518;2023-12-22T07:30:13;7.90;;;2.43;;
3924;SDS011;1977;52.274;10.518;2023-12-22T07:32:41;3.00;;;1.90;;
3924;SDS011;1977;52.274;10.518;2023-12-22T07:35:14;1.97;;;1.60;;
3924;SDS011;1977;52.274;10.518;2023-12-22T07:37:41;4.40;;;1.80;;
3924;SDS011;1977;52.274;10.518;2023-12-22T07:40:08;2.57;;;2.37;;
3924;SDS011;1977;52.274;10.518;2023-12-22T07:42:36;3.83;;;1.77;;
3924;SDS011;1977;52.274;10.518;2023-12-22T07:45:05;8.43;;;2.70;;
3924;SDS011;1977;52.274;10.518;2023-12-22T07:47:32;1.93;;;1.47;;
3924;SDS011;1977;52.274;10.518;2023-12-22T07:49:59;5.67;;;2.23;;
3924;SDS011;1977;52.274;10.518;2023-12-22T07:52:26;7.03;;;1.90;;
3924;SDS011;1977;52.274;10.518;2023-12-22T07:54:53;2.90;;;1.67;;
3924;SDS011;1977;52.274;10.518;2023-12-22T07:57:20;2.97;;;1.80;;
3924;SDS011;1977;52.274;10.518;2023-12-22T07:59:47;2.50;;;2.30;;
3924;SDS011;1977;52.274;10.518;2023-12-22T08:02:15;2.93;;;1.77;;
3924;SDS011;1977;52.274;10.518;2023-12-22T08:04:41;2.40;;;1.80;;
3924;SDS011;1977;52.274;10.518;2023-12-22T08:07:08;2.70;;;1.70;;
3924;SDS011;1977;52.274;10.518;2023-12-22T08:09:35;6.93;;;2.57;;
3924;SDS011;1977;52.274;10.518;2023-12-22T08:12:00;3.37;;;2.20;;
3924;SDS011;1977;52.274;10.518;2023-12-22T08:14:27;10.53;;;2.60;;
3924;SDS011;1977;52.274;10.518;2023-12-22T08:16:54;3.77;;;1.77;;
3924;SDS011;1977;52.274;10.518;2023-12-22T08:19:22;3.00;;;2.10;;
3924;SDS011;1977;52.274;10.518;2023-12-22T08:21:49;7.27;;;2.73;;
3924;SDS011;1977;52.274;10.518;2023-12-22T08:24:18;4.93;;;2.40;;
3924;SDS011;1977;52.274;10.518;2023-12-22T08:26:45;5.13;;;2.20;;
3924;SDS011;1977;52.274;10.518;2023-12-22T08:29:12;3.93;;;2.23;;
3924;SDS011;1977;52.274;10.518;2023-12-22T08:31:38;3.13;;;2.40;;
3924;SDS011;1977;52.274;10.518;2023-12-22T08:34:05;5.00;;;1.80;;
3924;SDS011;1977;52.274;10.518;2023-12-22T08:36:33;5.63;;;2.57;;
3924;SDS011;1977;52.274;10.518;2023-12-22T08:39:00;2.90;;;2.10;;
3924;SDS011;1977;52.274;10.518;2023-12-22T08:41:27;3.43;;;1.80;;
3924;SDS011;1977;52.274;10.518;2023-12-22T08:43:53;5.30;;;2.20;;
3924;SDS011;1977;52.274;10.518;2023-12-22T08:46:20;6.10;;;2.73;;
3924;SDS011;1977;52.274;10.518;2023-12-22T08:48:49;3.77;;;2.60;;
3924;SDS011;1977;52.274;10.518;2023-12-22T08:51:16;7.70;;;2.67;;
3924;SDS011;1977;52.274;10.518;2023-12-22T08:53:44;6.93;;;3.40;;
3924;SDS011;1977;52.274;10.518;2023-12-22T08:56:11;9.30;;;3.17;;
3924;SDS011;1977;52.274;10.518;2023-12-22T08:58:38;7.70;;;3.30;;
3924;SDS011;1977;52.274;10.518;2023-12-22T09:01:06;7.53;;;3.40;;
3924;SDS011;1977;52.274;10.518;2023-12-22T09:03:32;10.80;;;3.70;;
3924;SDS011;1977;52.274;10.518;2023-12-22T09:06:00;8.13;;;3.43;;
3924;SDS011;1977;52.274;10.518;2023-12-22T09:08:28;12.60;;;3.77;;
3924;SDS011;1977;52.274;10.518;2023-12-22T09:10:56;5.90;;;3.23;;
3924;SDS011;1977;52.274;10.518;2023-12-22T09:13:22;6.90;;;4.07;;
3924;SDS011;1977;52.274;10.518;2023-12-22T09:15:49;9.87;;;4.00;;
3924;SDS011;1977;52.274;10.518;2023-12-22T09:18:16;13.50;;;4.57;;
3924;SDS011;1977;52.274;10.518;2023-12-22T09:20:43;10.77;;;3.90;;
3924;SDS011;1977;52.274;10.518;2023-12-22T09:23:09;8.63;;;4.57;;
3924;SDS011;1977;52.274;10.518;2023-12-22T09:25:36;16.60;;;5.07;;
3924;SDS011;1977;52.274;10.518;2023-12-22T09:28:05;9.23;;;4.20;;
3924;SDS011;1977;52.274;10.518;2023-12-22T09:30:32;12.17;;;5.30;;
3924;SDS011;1977;52.274;10.518;2023-12-22T09:32:58;13.67;;;5.10;;
3924;SDS011;1977;52.274;10.518;2023-12-22T09:35:26;9.67;;;3.90;;
3924;SDS011;1977;52.274;10.518;2023-12-22T09:37:53;7.27;;;3.17;;
3924;SDS011;1977;52.274;10.518;2023-12-22T09:40:20;13.60;;;3.60;;
3924;SDS011;1977;52.274;10.518;2023-12-22T09:42:47;13.03;;;4.60;;
3924;SDS011;1977;52.274;10.518;2023-12-22T09:45:16;14.30;;;4.77;;
3924;SDS011;1977;52.274;10.518;2023-12-22T09:47:44;11.37;;;3.93;;
3924;SDS011;1977;52.274;10.518;2023-12-22T09:50:11;8.60;;;4.07;;
3924;SDS011;1977;52.274;10.518;2023-12-22T09:52:39;6.23;;;3.17;;
3924;SDS011;1977;52.274;10.518;2023-12-22T09:55:09;10.17;;;3.57;;
3924;SDS011;1977;52.274;10.518;2023-12-22T09:57:36;11.10;;;3.10;;
3924;SDS011;1977;52.274;10.518;2023-12-22T10:00:04;9.37;;;3.00;;
3924;SDS011;1977;52.274;10.518;2023-12-22T10:02:35;10.33;;;4.83;;
3924;SDS011;1977;52.274;10.518;2023-12-22T10:05:03;8.93;;;2.73;;
3924;SDS011;1977;52.274;10.518;2023-12-22T10:07:30;11.37;;;3.40;;
3924;SDS011;1977;52.274;10.518;2023-12-22T10:09:58;6.57;;;4.20;;
3924;SDS011;1977;52.274;10.518;2023-12-22T10:12:25;9.83;;;3.93;;
3924;SDS011;1977;52.274;10.518;2023-12-22T10:14:55;8.53;;;4.07;;
3924;SDS011;1977;52.274;10.518;2023-12-22T10:17:23;11.30;;;3.93;;
3924;SDS011;1977;52.274;10.518;2023-12-22T10:19:52;14.53;;;4.30;;
3924;SDS011;1977;52.274;10.518;2023-12-22T10:22:19;8.57;;;4.23;;
3924;SDS011;1977;52.274;10.518;2023-12-22T10:24:48;13.27;;;4.40;;
3924;SDS011;1977;52.274;10.518;2023-12-22T10:27:16;14.47;;;4.13;;
3924;SDS011;1977;52.274;10.518;2023-12-22T10:29:47;4.00;;;2.90;;
3924;SDS011;1977;52.274;10.518;2023-12-22T10:32:15;8.13;;;2.80;;
3924;SDS011;1977;52.274;10.518;2023-12-22T10:34:42;15.23;;;5.50;;
3924;SDS011;1977;52.274;10.518;2023-12-22T10:37:10;5.30;;;3.07;;
3924;SDS011;1977;52.274;10.518;2023-12-22T10:39:38;7.27;;;2.80;;
3924;SDS011;1977;52.274;10.518;2023-12-22T10:42:05;6.23;;;2.90;;
3924;SDS011;1977;52.274;10.518;2023-12-22T10:44:32;9.43;;;2.77;;
3924;SDS011;1977;52.274;10.518;2023-12-22T10:47:00;7.97;;;2.77;;
3924;SDS011;1977;52.274;10.518;2023-12-22T10:49:27;5.13;;;2.70;;
3924;SDS011;1977;52.274;10.518;2023-12-22T10:51:54;7.53;;;2.93;;
3924;SDS011;1977;52.274;10.518;2023-12-22T10:54:22;5.33;;;2.80;;
3924;SDS011;1977;52.274;10.518;2023-12-22T10:56:49;4.10;;;1.53;;
3924;SDS011;1977;52.274;10.518;2023-12-22T10:59:18;6.00;;;2.00;;
3924;SDS011;1977;52.274;10.518;2023-12-22T11:01:48;12.67;;;3.07;;
3924;SDS011;1977;52.274;10.518;2023-12-22T11:04:19;6.47;;;2.40;;
3924;SDS011;1977;52.274;10.518;2023-12-22T11:06:49;3.13;;;2.50;;
3924;SDS011;1977;52.274;10.518;2023-12-22T11:09:18;5.23;;;2.13;;
3924;SDS011;1977;52.274;10.518;2023-12-22T11:11:51;2.60;;;1.83;;
3924;SDS011;1977;52.274;10.518;2023-12-22T11:14:18;5.23;;;2.03;;
3924;SDS011;1977;52.274;10.518;2023-12-22T11:16:45;2.47;;;1.63;;
3924;SDS011;1977;52.274;10.518;2023-12-22T11:19:13;3.20;;;2.30;;
3924;SDS011;1977;52.274;10.518;2023-12-22T11:21:41;1.70;;;1.60;;
3924;SDS011;1977;52.274;10.518;2023-12-22T11:24:09;4.07;;;1.93;;
3924;SDS011;1977;52.274;10.518;2023-12-22T11:26:40;2.13;;;1.87;;
3924;SDS011;1977;52.274;10.518;2023-12-22T11:29:07;5.43;;;2.33;;
3924;SDS011;1977;52.274;10.518;2023-12-22T11:31:36;2.00;;;1.90;;
3924;SDS011;1977;52.274;10.518;2023-12-22T11:34:05;3.30;;;2.40;;
3924;SDS011;1977;52.274;10.518;2023-12-22T11:36:33;4.03;;;2.60;;
3924;SDS011;1977;52.274;10.518;2023-12-22T11:39:01;4.73;;;3.00;;
3924;SDS011;1977;52.274;10.518;2023-12-22T11:41:30;2.77;;;1.93;;
3924;SDS011;1977;52.274;10.518;2023-12-22T11:44:01;5.37;;;2.77;;
3924;SDS011;1977;52.274;10.518;2023-12-22T11:46:30;5.03;;;2.67;;
3924;SDS011;1977;52.274;10.518;2023-12-22T11:48:58;6.43;;;2.67;;
3924;SDS011;1977;52.274;10.518;2023-12-22T11:51:25;4.70;;;3.20;;
3924;SDS011;1977;52.274;10.518;2023-12-22T11:53:59;3.00;;;2.70;;
3924;SDS011;1977;52.274;10.518;2023-12-22T11:56:26;5.33;;;1.97;;
3924;SDS011;1977;52.274;10.518;2023-12-22T11:58:54;2.63;;;2.03;;
3924;SDS011;1977;52.274;10.518;2023-12-22T12:01:25;3.73;;;2.33;;
3924;SDS011;1977;52.274;10.518;2023-12-22T12:03:53;7.03;;;2.60;;
3924;SDS011;1977;52.274;10.518;2023-12-22T12:06:30;5.23;;;2.83;;
3924;SDS011;1977;52.274;10.518;2023-12-22T12:08:59;3.63;;;2.27;;
3924;SDS011;1977;52.274;10.518;2023-12-22T12:14:29;4.30;;;2.50;;
3924;SDS011;1977;52.274;10.518;2023-12-22T12:17:00;3.03;;;2.83;;
3924;SDS011;1977;52.274;10.518;2023-12-22T12:19:33;7.53;;;2.70;;
3924;SDS011;1977;52.274;10.518;2023-12-22T12:22:00;3.83;;;3.07;;
3924;SDS011;1977;52.274;10.518;2023-12-22T12:24:27;6.10;;;3.07;;
3924;SDS011;1977;52.274;10.518;2023-12-22T12:26:54;2.70;;;2.40;;
3924;SDS011;1977;52.274;10.518;2023-12-22T12:29:21;9.40;;;3.00;;
3924;SDS011;1977;52.274;10.518;2023-12-22T12:31:48;3.50;;;2.40;;
3924;SDS011;1977;52.274;10.518;2023-12-22T12:34:16;6.13;;;2.40;;
3924;SDS011;1977;52.274;10.518;2023-12-22T12:36:46;4.27;;;2.37;;
3924;SDS011;1977;52.274;10.518;2023-12-22T12:39:14;5.57;;;2.30;;
3924;SDS011;1977;52.274;10.518;2023-12-22T12:41:42;7.23;;;2.87;;
3924;SDS011;1977;52.274;10.518;2023-12-22T12:44:10;3.83;;;2.60;;
3924;SDS011;1977;52.274;10.518;2023-12-22T12:46:38;4.57;;;2.83;;
3924;SDS011;1977;52.274;10.518;2023-12-22T12:49:07;6.40;;;2.93;;
3924;SDS011;1977;52.274;10.518;2023-12-22T12:51:37;7.70;;;3.20;;
3924;SDS011;1977;52.274;10.518;2023-12-22T12:54:05;3.50;;;2.60;;
3924;SDS011;1977;52.274;10.518;2023-12-22T12:56:36;3.23;;;2.90;;
3924;SDS011;1977;52.274;10.518;2023-12-22T12:59:06;3.60;;;3.20;;
3924;SDS011;1977;52.274;10.518;2023-12-22T13:01:37;5.60;;;2.53;;
3924;SDS011;1977;52.274;10.518;2023-12-22T13:04:04;3.70;;;2.67;;
3924;SDS011;1977;52.274;10.518;2023-12-22T13:06:31;3.40;;;3.10;;
3924;SDS011;1977;52.274;10.518;2023-12-22T13:08:59;9.43;;;2.90;;
3924;SDS011;1977;52.274;10.518;2023-12-22T13:11:27;4.63;;;2.80;;
3924;SDS011;1977;52.274;10.518;2023-12-22T13:13:56;4.03;;;2.80;;
3924;SDS011;1977;52.274;10.518;2023-12-22T13:16:23;4.33;;;2.70;;
3924;SDS011;1977;52.274;10.518;2023-12-22T13:18:51;8.77;;;3.40;;
3924;SDS011;1977;52.274;10.518;2023-12-22T13:21:19;6.33;;;3.37;;
3924;SDS011;1977;52.274;10.518;2023-12-22T13:23:46;7.60;;;3.10;;
3924;SDS011;1977;52.274;10.518;2023-12-22T13:26:20;7.67;;;2.97;;
3924;SDS011;1977;52.274;10.518;2023-12-22T13:28:47;6.27;;;4.30;;
3924;SDS011;1977;52.274;10.518;2023-12-22T13:31:14;5.70;;;3.33;;
3924;SDS011;1977;52.274;10.518;2023-12-22T13:33:44;3.03;;;2.73;;
3924;SDS011;1977;52.274;10.518;2023-12-22T13:36:11;5.50;;;3.93;;
3924;SDS011;1977;52.274;10.518;2023-12-22T13:38:38;4.33;;;3.30;;
3924;SDS011;1977;52.274;10.518;2023-12-22T13:41:06;5.03;;;3.10;;
3924;SDS011;1977;52.274;10.518;2023-12-22T13:43:35;5.07;;;3.63;;
3924;SDS011;1977;52.274;10.518;2023-12-22T13:46:02;14.10;;;5.50;;
3924;SDS011;1977;52.274;10.518;2023-12-22T13:48:29;10.27;;;3.40;;
3924;SDS011;1977;52.274;10.518;2023-12-22T13:50:56;6.87;;;3.30;;
3924;SDS011;1977;52.274;10.518;2023-12-22T13:53:24;7.20;;;3.63;;
3924;SDS011;1977;52.274;10.518;2023-12-22T13:55:54;8.80;;;4.20;;
3924;SDS011;1977;52.274;10.518;2023-12-22T13:58:21;6.60;;;3.47;;
3924;SDS011;1977;52.274;10.518;2023-12-22T14:00:49;10.87;;;3.20;;
3924;SDS011;1977;52.274;10.518;2023-12-22T14:03:16;8.23;;;3.63;;
3924;SDS011;1977;52.274;10.518;2023-12-22T14:05:46;5.37;;;2.80;;
3924;SDS011;1977;52.274;10.518;2023-12-22T14:08:13;3.93;;;2.60;;
3924;SDS011;1977;52.274;10.518;2023-12-22T14:10:44;3.37;;;3.07;;
3924;SDS011;1977;52.274;10.518;2023-12-22T14:13:12;8.77;;;3.10;;
3924;SDS011;1977;52.274;10.518;2023-12-22T14:15:38;7.10;;;3.10;;
3924;SDS011;1977;52.274;10.518;2023-12-22T14:18:06;9.63;;;2.90;;
3924;SDS011;1977;52.274;10.518;2023-12-22T14:20:33;8.43;;;2.73;;
3924;SDS011;1977;52.274;10.518;2023-12-22T14:23:00;6.20;;;3.13;;
3924;SDS011;1977;52.274;10.518;2023-12-22T14:25:27;6.73;;;2.20;;
3924;SDS011;1977;52.274;10.518;2023-12-22T14:27:53;3.03;;;2.23;;
3924;SDS011;1977;52.274;10.518;2023-12-22T14:30:22;6.63;;;1.73;;
3924;SDS011;1977;52.274;10.518;2023-12-22T14:32:49;5.80;;;2.70;;
3924;SDS011;1977;52.274;10.518;2023-12-22T14:35:17;7.57;;;3.10;;
3924;SDS011;1977;52.274;10.518;2023-12-22T14:37:44;2.63;;;1.80;;
3924;SDS011;1977;52.274;10.518;2023-12-22T14:40:12;2.33;;;2.13;;
3924;SDS011;1977;52.274;10.518;2023-12-22T14:42:39;3.90;;;2.20;;
3924;SDS011;1977;52.274;10.518;2023-12-22T14:45:06;2.57;;;2.37;;
3924;SDS011;1977;52.274;10.518;2023-12-22T14:47:33;7.50;;;2.87;;
3924;SDS011;1977;52.274;10.518;2023-12-22T14:50:00;3.73;;;2.40;;
3924;SDS011;1977;52.274;10.518;2023-12-22T14:52:30;3.63;;;2.70;;
3924;SDS011;1977;52.274;10.518;2023-12-22T14:54:57;3.30;;;2.50;;
3924;SDS011;1977;52.274;10.518;2023-12-22T14:57:24;5.00;;;3.20;;
3924;SDS011;1977;52.274;10.518;2023-12-22T14:59:52;4.83;;;3.03;;
3924;SDS011;1977;52.274;10.518;2023-12-22T15:02:18;4.00;;;3.37;;
3924;SDS011;1977;52.274;10.518;2023-12-22T15:04:45;5.50;;;3.50;;
3924;SDS011;1977;52.274;10.518;2023-12-22T15:07:14;12.20;;;4.20;;
3924;SDS011;1977;52.274;10.518;2023-12-22T15:09:43;10.33;;;4.00;;